Time;durP1;ratioP1;P1;durP2;ratioP2;P2;SDS_P1;SDS_P2;PMS_P1;PMS_P2;Temp;Humidity;BMP_temperature;BMP_pressure;BME280_temperature;BME280_humidity;BME280_pressure;Samples;Min_cycle;Max_cycle;Signal;HPM_P1;HPM_P2
2023/12/30 00:00:53;;;;;;;;;;;;;;;12.20;65.04;97173.75;4251264;27;5637;-62
2023/12/30 00:02:58;;;;;;;;;;;;;;;12.20;65.19;97181.72;4254084;27;5645;-63
2023/12/30 00:05:03;;;;;;;;;;;;;;;12.19;65.05;97179.25;4254348;27;5595;-63
2023/12/30 00:07:05;;;;;;;;;;;;;;;12.17;65.35;97182.13;4241681;27;5729;-63
2023/12/30 00:09:08;;;;;;;;;;;;;;;12.18;65.09;97185.59;4254158;27;5727;-63
2023/12/30 00:11:11;;;;;;;;;;;;;;;12.18;65.14;97185.59;4256011;27;5602;-62
2023/12/30 00:13:14;;;;;;;;;;;;;;;12.17;65.21;97190.06;4260712;27;5564;-62
2023/12/30 00:15:17;;;;;;;;;;;;;;;12.18;65.05;97191.69;4250438;27;6214;-63
2023/12/30 00:17:20;;;;;;;;;;;;;;;12.18;65.23;97185.59;4250463;27;5167;-63
2023/12/30 00:19:25;;;;;;;;;;;;;;;12.17;65.18;97195.38;4250618;27;5587;-63
2023/12/30 00:21:28;;;;;;;;;;;;;;;12.15;65.19;97194.75;4255448;27;5556;-63
2023/12/30 00:23:31;;;;;;;;;;;;;;;12.14;64.94;97193.09;4258722;27;5587;-64
2023/12/30 00:25:47;;;;;;;;;;;;;;;12.15;65.21;97196.56;4254083;27;5720;-62
2023/12/30 00:27:51;;;;;;;;;;;;;;;12.16;65.04;97193.72;4253955;27;5593;-63
2023/12/30 00:29:54;;;;;;;;;;;;;;;12.15;64.92;97200.03;4261046;27;5686;-63
2023/12/30 00:31:57;;;;;;;;;;;;;;;12.13;64.88;97202.06;4255009;27;5724;-63
2023/12/30 00:34:02;;;;;;;;;;;;;;;12.13;64.76;97203.91;4253927;27;6314;-64
2023/12/30 00:36:07;;;;;;;;;;;;;;;12.13;64.91;97199.44;4262042;27;5556;-63
2023/12/30 00:38:10;;;;;;;;;;;;;;;12.12;65.21;97199.63;4253489;27;5646;-63
2023/12/30 00:40:12;;;;;;;;;;;;;;;12.13;64.87;97193.31;4253332;27;6531;-62
2023/12/30 00:42:18;;;;;;;;;;;;;;;12.14;65.09;97201.06;4254149;27;5645;-63
2023/12/30 00:44:21;;;;;;;;;;;;;;;12.14;65.11;97198.41;4253698;27;5653;-64
2023/12/30 00:46:24;;;;;;;;;;;;;;;12.14;64.84;97206.34;4253728;27;5806;-63
2023/12/30 00:48:26;;;;;;;;;;;;;;;12.15;64.94;97202.69;4253415;27;5961;-63
2023/12/30 00:50:30;;;;;;;;;;;;;;;12.14;64.92;97206.34;4255551;27;5658;-64
2023/12/30 00:52:35;;;;;;;;;;;;;;;12.15;64.99;97200.03;4253687;27;6283;-63
2023/12/30 00:54:38;;;;;;;;;;;;;;;12.16;64.81;97203.50;4256599;27;6322;-63
2023/12/30 00:56:52;;;;;;;;;;;;;;;12.16;64.81;97206.16;4253226;27;5590;-63
2023/12/30 00:58:55;;;;;;;;;;;;;;;12.17;64.76;97205.16;4256331;27;5678;-64
2023/12/30 01:00:57;;;;;;;;;;;;;;;12.15;64.79;97202.69;4253593;27;5633;-63
2023/12/30 01:03:01;;;;;;;;;;;;;;;12.14;65.05;97206.34;4253640;27;5615;-63
2023/12/30 01:05:04;;;;;;;;;;;;;;;12.16;64.67;97211.47;4253652;27;5666;-63
2023/12/30 01:07:07;;;;;;;;;;;;;;;12.15;64.79;97213.28;4253219;27;7261;-63
2023/12/30 01:09:12;;;;;;;;;;;;;;;12.13;64.77;97219.81;4240018;27;5575;-63
2023/12/30 01:11:15;;;;;;;;;;;;;;;12.13;64.75;97220.63;4253008;27;5641;-63
2023/12/30 01:13:18;;;;;;;;;;;;;;;12.12;64.83;97219.00;4253225;27;5625;-63
2023/12/30 01:15:21;;;;;;;;;;;;;;;12.13;64.61;97231.22;4253398;27;5836;-63
2023/12/30 01:17:23;;;;;;;;;;;;;;;12.13;64.91;97228.56;4253400;27;5595;-63
2023/12/30 01:19:26;;;;;;;;;;;;;;;12.13;64.66;97230.41;4253150;27;5110;-62
2023/12/30 01:21:29;;;;;;;;;;;;;;;12.13;64.77;97236.53;4253047;27;5578;-62
2023/12/30 01:23:32;;;;;;;;;;;;;;;12.14;64.67;97224.09;4252983;27;5582;-62
2023/12/30 01:25:38;;;;;;;;;;;;;;;12.15;64.56;97226.56;4252786;27;5690;-63
2023/12/30 01:27:40;;;;;;;;;;;;;;;12.15;64.77;97228.38;4252919;27;5662;-64
2023/12/30 01:29:44;;;;;;;;;;;;;;;12.12;64.59;97234.88;4253007;27;5601;-64
2023/12/30 01:31:47;;;;;;;;;;;;;;;12.10;64.61;97230.78;4252693;27;5582;-64
2023/12/30 01:33:50;;;;;;;;;;;;;;;12.09;64.64;97224.66;4261665;27;5675;-63
2023/12/30 01:35:53;;;;;;;;;;;;;;;12.12;64.57;97231.44;4260046;27;5567;-62
2023/12/30 01:37:55;;;;;;;;;;;;;;;12.13;64.43;97230.41;4253737;27;5615;-63
2023/12/30 01:39:58;;;;;;;;;;;;;;;12.15;64.79;97244.28;4252965;27;5590;-63
2023/12/30 01:42:03;;;;;;;;;;;;;;;12.17;64.76;97240.41;4269325;27;5571;-63
2023/12/30 01:44:05;;;;;;;;;;;;;;;12.19;64.35;97238.41;4269303;27;5563;-61
2023/12/30 01:46:10;;;;;;;;;;;;;;;12.19;64.47;97235.75;4261852;27;5678;-62
2023/12/30 01:48:14;;;;;;;;;;;;;;;12.18;64.38;97236.75;4260061;27;5129;-60
2023/12/30 01:50:18;;;;;;;;;;;;;;;12.19;64.41;97245.53;4252871;27;5641;-62
2023/12/30 01:52:21;;;;;;;;;;;;;;;12.19;64.33;97250.81;4260825;27;5579;-62
2023/12/30 01:54:24;;;;;;;;;;;;;;;12.18;64.52;97247.38;4252736;27;5729;-64
2023/12/30 01:56:28;;;;;;;;;;;;;;;12.18;64.17;97246.53;4252575;27;5609;-63
2023/12/30 01:58:33;;;;;;;;;;;;;;;12.19;64.24;97251.66;4252786;27;5831;-63
2023/12/30 02:00:39;;;;;;;;;;;;;;;12.19;64.51;97250.81;4252721;27;5812;-63
2023/12/30 02:02:42;;;;;;;;;;;;;;;12.18;64.11;97255.31;4265888;27;5634;-64
2023/12/30 02:04:46;;;;;;;;;;;;;;;12.19;64.40;97258.78;4254422;27;5896;-64
2023/12/30 02:06:49;;;;;;;;;;;;;;;12.18;64.29;97255.31;4252465;27;5579;-63
2023/12/30 02:08:52;;;;;;;;;;;;;;;12.18;64.31;97257.97;4251996;27;5692;-63
2023/12/30 02:10:55;;;;;;;;;;;;;;;12.18;64.08;97260.63;4251949;27;5587;-63
2023/12/30 02:12:59;;;;;;;;;;;;;;;12.18;64.12;97257.97;4260757;27;5646;-63
2023/12/30 02:15:14;;;;;;;;;;;;;;;12.19;64.03;97256.13;4252097;27;5578;-64
2023/12/30 02:17:16;;;;;;;;;;;;;;;12.17;63.99;97248.38;4252004;27;5629;-64
2023/12/30 02:19:19;;;;;;;;;;;;;;;12.17;64.05;97250.22;4251755;27;5566;-65
2023/12/30 02:21:22;;;;;;;;;;;;;;;12.15;63.94;97245.09;4252485;27;5587;-62
2023/12/30 02:23:26;;;;;;;;;;;;;;;12.13;64.08;97235.72;4252245;27;5725;-63
2023/12/30 02:25:30;;;;;;;;;;;;;;;12.14;64.30;97240.00;4251621;27;5590;-64
2023/12/30 02:27:32;;;;;;;;;;;;;;;12.14;64.04;97240.81;4251600;27;5590;-64
2023/12/30 02:29:35;;;;;;;;;;;;;;;12.13;64.30;97251.63;4251665;27;5944;-63
2023/12/30 02:31:45;;;;;;;;;;;;;;;12.13;63.98;97247.13;4251149;27;5681;-64
2023/12/30 02:33:48;;;;;;;;;;;;;;;12.12;63.90;97245.50;4252028;27;5621;-63
2023/12/30 02:35:51;;;;;;;;;;;;;;;12.11;63.96;97245.66;4252025;27;5586;-63
2023/12/30 02:37:54;;;;;;;;;;;;;;;12.11;64.04;97248.31;4251532;27;5686;-63
2023/12/30 02:39:58;;;;;;;;;;;;;;;12.11;63.92;97237.72;4250944;27;5819;-64
2023/12/30 02:42:01;;;;;;;;;;;;;;;12.07;63.80;97231.97;4250522;27;5622;-64
2023/12/30 02:44:04;;;;;;;;;;;;;;;12.06;63.73;97233.00;4251196;27;5648;-64
2023/12/30 02:46:07;;;;;;;;;;;;;;;12.03;63.82;97233.38;4251249;27;5693;-64
2023/12/30 02:48:10;;;;;;;;;;;;;;;12.03;64.25;97243.16;4251592;27;5645;-63
2023/12/30 02:50:13;;;;;;;;;;;;;;;12.04;64.29;97237.66;4251615;27;5634;-64
2023/12/30 02:52:15;;;;;;;;;;;;;;;12.04;63.98;97236.84;4251483;27;6739;-64
2023/12/30 02:54:18;;;;;;;;;;;;;;;12.04;64.28;97237.66;4251750;27;5617;-63
2023/12/30 02:56:24;;;;;;;;;;;;;;;12.05;64.20;97233.19;4251619;27;5625;-63
2023/12/30 02:58:26;;;;;;;;;;;;;;;12.05;64.25;97234.00;4252001;27;5583;-63
2023/12/30 03:00:29;;;;;;;;;;;;;;;12.03;63.95;97236.03;4253685;27;5768;-63
2023/12/30 03:02:33;;;;;;;;;;;;;;;12.05;64.05;97247.25;4256518;27;5630;-63
2023/12/30 03:04:35;;;;;;;;;;;;;;;12.03;63.77;97236.03;4258182;27;5645;-63
2023/12/30 03:06:38;;;;;;;;;;;;;;;12.02;63.85;97230.94;4251847;27;5593;-63
2023/12/30 03:08:41;;;;;;;;;;;;;;;12.01;64.01;97227.47;4256130;27;5346;-63
2023/12/30 03:10:43;;;;;;;;;;;;;;;12.03;64.14;97225.44;4250872;27;7807;-62
2023/12/30 03:12:48;;;;;;;;;;;;;;;12.02;64.29;97234.41;4251699;27;6279;-63
2023/12/30 03:14:51;;;;;;;;;;;;;;;12.02;64.02;97226.44;4251185;27;5684;-63
2023/12/30 03:16:54;;;;;;;;;;;;;;;12.01;63.96;97224.81;4251349;27;5717;-63
2023/12/30 03:18:57;;;;;;;;;;;;;;;12.01;63.87;97219.50;4255690;27;5576;-63
2023/12/30 03:20:59;;;;;;;;;;;;;;;12.02;64.06;97212.38;4251334;27;5889;-63
2023/12/30 03:23:02;;;;;;;;;;;;;;;12.03;63.92;97214.03;4251161;27;7018;-63
2023/12/30 03:25:06;;;;;;;;;;;;;;;12.02;63.98;97215.84;4251303;27;5603;-63
2023/12/30 03:27:09;;;;;;;;;;;;;;;12.01;64.07;97211.56;4251087;27;5847;-64
2023/12/30 03:29:14;;;;;;;;;;;;;;;11.98;63.69;97206.63;4251098;27;5625;-64
2023/12/30 03:31:20;;;;;;;;;;;;;;;11.98;63.62;97208.47;4259667;27;5559;-64
2023/12/30 03:33:24;;;;;;;;;;;;;;;11.98;63.76;97201.31;4251225;27;5621;-63
2023/12/30 03:35:26;;;;;;;;;;;;;;;11.98;63.69;97203.97;4251316;27;5630;-63
2023/12/30 03:37:29;;;;;;;;;;;;;;;11.98;63.94;97201.31;4251360;27;5641;-62
2023/12/30 03:39:33;;;;;;;;;;;;;;;11.99;63.82;97202.97;4250973;27;5578;-63
2023/12/30 03:41:36;;;;;;;;;;;;;;;11.99;63.67;97197.66;4259712;27;6043;-63
2023/12/30 03:43:39;;;;;;;;;;;;;;;12.00;63.65;97199.28;4251224;27;7666;-64
2023/12/30 03:45:44;;;;;;;;;;;;;;;12.01;63.91;97200.16;4251053;27;5733;-63
2023/12/30 03:47:47;;;;;;;;;;;;;;;12.01;63.66;97198.31;4251120;27;5570;-63
2023/12/30 03:49:50;;;;;;;;;;;;;;;12.03;63.45;97192.81;4257286;27;5821;-63
2023/12/30 03:51:53;;;;;;;;;;;;;;;12.02;63.52;97197.31;4252603;27;5579;-63
2023/12/30 03:53:56;;;;;;;;;;;;;;;12.01;63.85;97198.31;4259599;27;5763;-64
2023/12/30 03:56:00;;;;;;;;;;;;;;;12.00;63.80;97209.06;4253062;27;5582;-63
2023/12/30 03:58:03;;;;;;;;;;;;;;;12.00;63.77;97204.59;4254587;27;5579;-63
2023/12/30 04:00:08;;;;;;;;;;;;;;;11.99;63.39;97216.22;4254324;27;5086;-63
2023/12/30 04:02:12;;;;;;;;;;;;;;;12.01;63.73;97216.88;4255177;27;5657;-63
2023/12/30 04:04:15;;;;;;;;;;;;;;;12.01;63.66;97208.09;4261548;27;5086;-63
2023/12/30 04:06:18;;;;;;;;;;;;;;;11.99;63.65;97208.25;4254405;27;5633;-63
2023/12/30 04:08:21;;;;;;;;;;;;;;;12.01;63.56;97211.56;4254144;27;5626;-62
2023/12/30 04:10:25;;;;;;;;;;;;;;;12.01;63.36;97208.91;4254198;27;5645;-64
2023/12/30 04:12:48;;;;;;;;;;;;;;;12.00;63.57;97207.25;4251762;27;5673;-64
2023/12/30 04:15:11;;;;;;;;;;;;;;;12.00;63.29;97211.72;4251872;27;5563;-63
2023/12/30 04:17:36;;;;;;;;;;;;;;;11.98;63.52;97206.63;4254223;27;5726;-63
2023/12/30 04:19:40;;;;;;;;;;;;;;;11.96;63.20;97203.34;4254218;27;5579;-62
2023/12/30 04:21:43;;;;;;;;;;;;;;;11.94;63.47;97195.59;4244354;27;5633;-63
2023/12/30 04:23:45;;;;;;;;;;;;;;;11.93;63.22;97198.44;4254047;27;5582;-63
2023/12/30 04:25:47;;;;;;;;;;;;;;;11.92;63.60;97192.34;4262432;27;6260;-62
2023/12/30 04:27:50;;;;;;;;;;;;;;;11.91;63.66;97180.09;4254121;27;6446;-63
2023/12/30 04:29:53;;;;;;;;;;;;;;;11.93;63.65;97187.84;4242504;27;5598;-64
2023/12/30 04:31:56;;;;;;;;;;;;;;;11.92;63.60;97186.22;4255273;27;5603;-64
2023/12/30 04:33:59;;;;;;;;;;;;;;;11.93;63.49;97198.44;4253972;27;5216;-63
2023/12/30 04:36:03;;;;;;;;;;;;;;;11.93;63.32;97196.63;4253884;27;5574;-64
2023/12/30 04:38:06;;;;;;;;;;;;;;;11.92;63.63;97175.63;4253629;27;5831;-61
2023/12/30 04:40:11;;;;;;;;;;;;;;;11.90;63.39;97177.66;4254050;27;5586;-64
2023/12/30 04:42:15;;;;;;;;;;;;;;;11.89;63.58;97171.53;4255141;27;5578;-63
2023/12/30 04:44:17;;;;;;;;;;;;;;;11.90;63.44;97177.66;4260589;27;5615;-64
2023/12/30 04:46:21;;;;;;;;;;;;;;;11.89;63.68;97174.19;4253761;27;6566;-62
2023/12/30 04:48:24;;;;;;;;;;;;;;;11.89;63.75;97168.03;4261610;27;7280;-63
2023/12/30 04:50:29;;;;;;;;;;;;;;;11.89;63.67;97175.97;4253657;27;7667;-63
2023/12/30 04:52:32;;;;;;;;;;;;;;;11.90;63.52;97177.66;4259517;27;5579;-63
2023/12/30 04:54:35;;;;;;;;;;;;;;;11.90;63.80;97172.34;4257697;27;5824;-63
2023/12/30 04:56:38;;;;;;;;;;;;;;;11.91;63.54;97187.22;4253277;27;5582;-63
2023/12/30 04:58:41;;;;;;;;;;;;;;;11.91;63.62;97173.97;4259559;27;5583;-63
2023/12/30 05:00:44;;;;;;;;;;;;;;;11.91;63.56;97179.28;4257401;27;5590;-63
2023/12/30 05:02:47;;;;;;;;;;;;;;;11.90;63.44;97173.16;4257729;27;5116;-63
2023/12/30 05:04:50;;;;;;;;;;;;;;;11.92;63.83;97172.97;4269845;27;5677;-63
2023/12/30 05:06:54;;;;;;;;;;;;;;;11.92;63.68;97172.97;4254303;27;5605;-63
2023/12/30 05:08:58;;;;;;;;;;;;;;;11.93;63.83;97177.25;4253047;27;6445;-63
2023/12/30 05:11:06;;;;;;;;;;;;;;;11.91;63.57;97168.69;4253011;27;6280;-63
2023/12/30 05:13:08;;;;;;;;;;;;;;;11.92;63.62;97172.97;4253324;27;5673;-63
2023/12/30 05:15:13;;;;;;;;;;;;;;;11.93;63.76;97169.31;4254617;27;5693;-63
2023/12/30 05:17:17;;;;;;;;;;;;;;;11.93;63.55;97178.06;4253113;27;5835;-63
2023/12/30 05:19:20;;;;;;;;;;;;;;;11.91;63.32;97177.44;4261460;27;5575;-63
2023/12/30 05:21:23;;;;;;;;;;;;;;;11.91;63.77;97173.97;4252827;27;5653;-63
2023/12/30 05:23:28;;;;;;;;;;;;;;;11.90;63.63;97181.09;4256419;27;5631;-63
2023/12/30 05:25:31;;;;;;;;;;;;;;;11.90;63.40;97177.66;4259741;27;5586;-63
2023/12/30 05:27:33;;;;;;;;;;;;;;;11.88;63.45;97179.63;4253402;27;5575;-63
2023/12/30 05:29:35;;;;;;;;;;;;;;;11.88;63.42;97179.63;4254175;27;5574;-63
2023/12/30 05:31:38;;;;;;;;;;;;;;;11.88;63.43;97174.34;4252884;27;5629;-63
2023/12/30 05:33:41;;;;;;;;;;;;;;;11.88;63.37;97182.28;4253151;27;5748;-63
2023/12/30 05:35:44;;;;;;;;;;;;;;;11.86;63.48;97185.13;4252787;27;5723;-63
2023/12/30 05:37:48;;;;;;;;;;;;;;;11.87;63.43;97193.91;4252785;27;5717;-63
2023/12/30 05:39:52;;;;;;;;;;;;;;;11.85;63.38;97191.44;4252922;27;5707;-63
2023/12/30 05:41:55;;;;;;;;;;;;;;;11.86;63.49;97194.91;4259036;27;5068;-63
2023/12/30 05:43:57;;;;;;;;;;;;;;;11.86;63.32;97197.56;4259718;27;5586;-63
2023/12/30 05:45:59;;;;;;;;;;;;;;;11.84;63.31;97189.00;4252788;27;6269;-63
2023/12/30 05:48:02;;;;;;;;;;;;;;;11.85;63.64;97195.94;4252928;27;5804;-63
2023/12/30 05:50:06;;;;;;;;;;;;;;;11.82;63.32;97202.44;4252567;27;6453;-63
2023/12/30 05:52:10;;;;;;;;;;;;;;;11.82;63.55;97201.63;4252928;27;5575;-63
2023/12/30 05:54:13;;;;;;;;;;;;;;;11.82;63.50;97197.13;4262435;27;5637;-63
2023/12/30 05:56:23;;;;;;;;;;;;;;;11.81;63.44;97195.50;4259524;27;5586;-63
2023/12/30 05:58:26;;;;;;;;;;;;;;;11.82;63.45;97193.66;4252602;27;5836;-63
2023/12/30 06:00:29;;;;;;;;;;;;;;;11.81;63.49;97197.31;4252393;27;5661;-64
2023/12/30 06:02:32;;;;;;;;;;;;;;;11.79;63.19;97191.38;4254556;27;6418;-64
2023/12/30 06:04:35;;;;;;;;;;;;;;;11.80;63.19;97193.03;4256561;27;5583;-63
2023/12/30 06:06:38;;;;;;;;;;;;;;;11.79;63.23;97202.81;4252236;27;6354;-63
2023/12/30 06:08:41;;;;;;;;;;;;;;;11.79;63.26;97204.63;4252273;27;6343;-63
2023/12/30 06:10:49;;;;;;;;;;;;;;;11.79;63.19;97201.97;4252165;27;5664;-63
2023/12/30 06:12:53;;;;;;;;;;;;;;;11.79;63.54;97207.28;4267574;27;7452;-63
2023/12/30 06:14:57;;;;;;;;;;;;;;;11.77;63.05;97198.66;4262171;27;5606;-62
2023/12/30 06:17:00;;;;;;;;;;;;;;;11.75;63.35;97201.50;4260605;27;6295;-63
2023/12/30 06:19:03;;;;;;;;;;;;;;;11.76;63.12;97202.31;4251318;27;5606;-62
2023/12/30 06:21:06;;;;;;;;;;;;;;;11.78;63.31;97205.59;4252037;27;5586;-63
2023/12/30 06:23:09;;;;;;;;;;;;;;;11.76;63.26;97202.31;4252367;27;5809;-63
2023/12/30 06:25:12;;;;;;;;;;;;;;;11.76;63.13;97208.44;4252126;27;5650;-63
2023/12/30 06:27:16;;;;;;;;;;;;;;;11.75;63.28;97201.50;4251980;27;5578;-63
2023/12/30 06:29:20;;;;;;;;;;;;;;;11.75;63.33;97206.00;4252106;27;5745;-63
2023/12/30 06:31:23;;;;;;;;;;;;;;;11.75;63.17;97200.69;4251912;27;5626;-62
2023/12/30 06:33:26;;;;;;;;;;;;;;;11.75;62.99;97212.09;4255123;27;5575;-63
2023/12/30 06:35:29;;;;;;;;;;;;;;;11.72;63.23;97212.50;4257289;27;5582;-63
2023/12/30 06:37:32;;;;;;;;;;;;;;;11.73;63.13;97218.59;4252152;27;5206;-63
2023/12/30 06:39:36;;;;;;;;;;;;;;;11.74;63.15;97225.53;4251761;27;5653;-63
2023/12/30 06:41:39;;;;;;;;;;;;;;;11.74;62.85;97222.91;4251902;27;5574;-63
2023/12/30 06:43:42;;;;;;;;;;;;;;;11.72;62.90;97222.28;4252200;27;5065;-63
2023/12/30 06:45:47;;;;;;;;;;;;;;;11.72;62.84;97223.09;4251548;27;7692;-64
2023/12/30 06:47:49;;;;;;;;;;;;;;;11.71;62.97;97221.44;4251859;27;6260;-64
2023/12/30 06:49:53;;;;;;;;;;;;;;;11.70;63.16;97226.94;4251595;27;6283;-63
2023/12/30 06:51:56;;;;;;;;;;;;;;;11.70;63.14;97224.28;4266109;27;6377;-63
2023/12/30 06:53:59;;;;;;;;;;;;;;;11.70;62.90;97225.13;4241975;27;5586;-63
2023/12/30 06:56:02;;;;;;;;;;;;;;;11.70;63.11;97219.00;4233382;27;5613;-63
2023/12/30 06:58:05;;;;;;;;;;;;;;;11.69;63.10;97223.47;4252143;27;5675;-64
2023/12/30 07:00:10;;;;;;;;;;;;;;;11.69;62.95;97222.66;4251553;27;5641;-62
2023/12/30 07:02:14;;;;;;;;;;;;;;;11.69;63.03;97222.66;4251691;27;5784;-62
2023/12/30 07:04:17;;;;;;;;;;;;;;;11.68;62.73;97213.91;4253275;27;5082;-63
2023/12/30 07:06:20;;;;;;;;;;;;;;;11.67;62.65;97220.19;4252794;27;7651;-63
2023/12/30 07:08:23;;;;;;;;;;;;;;;11.67;63.01;97217.56;4268882;27;5045;-63
2023/12/30 07:10:26;;;;;;;;;;;;;;;11.68;62.86;97219.19;4252106;27;5605;-63
2023/12/30 07:12:29;;;;;;;;;;;;;;;11.66;62.87;97219.38;4251409;27;5728;-63
2023/12/30 07:14:34;;;;;;;;;;;;;;;11.68;62.74;97218.38;4251434;27;5645;-63
2023/12/30 07:16:37;;;;;;;;;;;;;;;11.66;62.87;97218.53;4251603;27;6286;-63
2023/12/30 07:18:40;;;;;;;;;;;;;;;11.65;62.65;97215.06;4251279;27;6264;-63
2023/12/30 07:20:44;;;;;;;;;;;;;;;11.66;62.60;97214.09;4251452;27;5625;-62
2023/12/30 07:22:46;;;;;;;;;;;;;;;11.67;62.50;97214.91;4251292;27;5587;-62
2023/12/30 07:24:49;;;;;;;;;;;;;;;11.66;62.59;97206.16;4251166;27;5699;-63
2023/12/30 07:26:52;;;;;;;;;;;;;;;11.66;62.70;97202.66;4250966;27;5603;-63
2023/12/30 07:28:55;;;;;;;;;;;;;;;11.65;62.51;97201.81;4232820;28;5593;-63
2023/12/30 07:30:59;;;;;;;;;;;;;;;11.64;62.86;97196.72;4258836;27;5575;-63
2023/12/30 07:33:02;;;;;;;;;;;;;;;11.64;62.86;97202.84;4251644;27;5578;-63
2023/12/30 07:35:09;;;;;;;;;;;;;;;11.64;62.74;97199.38;4251388;27;5566;-64
2023/12/30 07:37:13;;;;;;;;;;;;;;;11.65;62.79;97206.31;4251276;27;5586;-63
2023/12/30 07:39:16;;;;;;;;;;;;;;;11.65;62.50;97206.31;4251058;27;5087;-64
2023/12/30 07:41:18;;;;;;;;;;;;;;;11.64;62.77;97200.19;4251494;27;7673;-63
2023/12/30 07:43:21;;;;;;;;;;;;;;;11.65;62.45;97207.13;4257994;27;5592;-64
2023/12/30 07:45:24;;;;;;;;;;;;;;;11.63;62.62;97205.69;4251184;27;5804;-63
2023/12/30 07:47:27;;;;;;;;;;;;;;;11.64;62.39;97205.47;4254410;27;5563;-63
2023/12/30 07:49:30;;;;;;;;;;;;;;;11.64;62.69;97207.31;4262670;27;5695;-63
2023/12/30 07:51:36;;;;;;;;;;;;;;;11.64;62.62;97207.31;4250945;27;6300;-63
2023/12/30 07:53:39;;;;;;;;;;;;;;;11.64;62.81;97204.66;4251041;27;5578;-63
2023/12/30 07:55:42;;;;;;;;;;;;;;;11.65;62.71;97201.81;4256019;27;5564;-65
2023/12/30 07:57:45;;;;;;;;;;;;;;;11.64;62.44;97194.91;4253870;27;5582;-63
2023/12/30 07:59:49;;;;;;;;;;;;;;;11.66;62.51;97192.91;4265526;27;5567;-63
2023/12/30 08:01:56;;;;;;;;;;;;;;;11.66;62.44;97195.56;4252894;27;5574;-63
2023/12/30 08:03:58;;;;;;;;;;;;;;;11.66;62.64;97198.19;4251008;27;5582;-63
2023/12/30 08:06:01;;;;;;;;;;;;;;;11.67;62.57;97193.72;4259513;27;5610;-62
2023/12/30 08:08:08;;;;;;;;;;;;;;;11.66;62.33;97187.59;4250716;27;5657;-63
2023/12/30 08:10:11;;;;;;;;;;;;;;;11.66;62.51;97187.59;4250776;27;5709;-63
2023/12/30 08:12:14;;;;;;;;;;;;;;;11.66;62.61;97192.06;4250698;27;5626;-63
2023/12/30 08:14:18;;;;;;;;;;;;;;;11.66;62.37;97192.91;4250871;27;5590;-63
2023/12/30 08:16:21;;;;;;;;;;;;;;;11.69;62.26;97198.81;4250729;27;5575;-64
2023/12/30 08:18:24;;;;;;;;;;;;;;;11.68;62.57;97194.53;4259498;27;5571;-63
2023/12/30 08:20:26;;;;;;;;;;;;;;;11.68;62.74;97186.59;4253824;27;5563;-63
2023/12/30 08:22:29;;;;;;;;;;;;;;;11.70;62.51;97187.22;4255730;27;5622;-63
2023/12/30 08:24:34;;;;;;;;;;;;;;;11.69;62.62;97191.69;4250790;27;5614;-63
2023/12/30 08:26:37;;;;;;;;;;;;;;;11.71;62.48;97189.66;4250747;27;5670;-64
2023/12/30 08:28:39;;;;;;;;;;;;;;;11.74;62.41;97188.47;4259268;27;5582;-64
2023/12/30 08:30:42;;;;;;;;;;;;;;;11.74;62.27;97181.34;4250895;27;5708;-63
2023/12/30 08:32:45;;;;;;;;;;;;;;;11.73;62.23;97182.34;4250666;27;6295;-63
2023/12/30 08:34:49;;;;;;;;;;;;;;;11.73;61.99;97181.53;4250707;27;5645;-63
2023/12/30 08:36:52;;;;;;;;;;;;;;;11.72;62.10;97183.34;4250730;27;5594;-64
2023/12/30 08:38:55;;;;;;;;;;;;;;;11.71;62.11;97186.19;4250415;27;5578;-63
2023/12/30 08:40:59;;;;;;;;;;;;;;;11.70;62.08;97181.91;4250401;27;6284;-63
2023/12/30 08:43:03;;;;;;;;;;;;;;;11.69;61.82;97180.28;4253078;27;5575;-64
2023/12/30 08:45:07;;;;;;;;;;;;;;;11.67;61.53;97177.81;4260840;27;5571;-63
2023/12/30 08:47:10;;;;;;;;;;;;;;;11.62;61.60;97175.72;4254701;27;5589;-64
2023/12/30 08:49:15;;;;;;;;;;;;;;;11.66;61.87;97182.31;4261975;27;5593;-64
2023/12/30 08:51:18;;;;;;;;;;;;;;;11.68;61.30;97178.66;4253500;27;5633;-63
2023/12/30 08:53:24;;;;;;;;;;;;;;;11.66;60.89;97173.50;4254394;27;5614;-63
2023/12/30 08:55:27;;;;;;;;;;;;;;;11.65;60.91;97172.69;4267783;27;5625;-62
2023/12/30 08:57:32;;;;;;;;;;;;;;;11.66;61.22;97171.72;4253675;27;5710;-63
2023/12/30 08:59:34;;;;;;;;;;;;;;;11.66;61.04;97171.72;4253660;27;5693;-63
2023/12/30 09:01:37;;;;;;;;;;;;;;;11.68;60.87;97179.47;4253818;27;5626;-63
2023/12/30 09:03:40;;;;;;;;;;;;;;;11.69;61.07;97170.50;4253562;27;5654;-63
2023/12/30 09:05:44;;;;;;;;;;;;;;;11.71;60.84;97179.06;4253481;27;5113;-63
2023/12/30 09:07:48;;;;;;;;;;;;;;;11.73;60.86;97174.41;4253592;27;5681;-63
2023/12/30 09:09:51;;;;;;;;;;;;;;;11.75;60.80;97177.66;4259986;27;5556;-63
2023/12/30 09:11:54;;;;;;;;;;;;;;;11.77;60.87;97177.47;4270346;27;5685;-64
2023/12/30 09:13:58;;;;;;;;;;;;;;;11.79;60.74;97180.78;4254311;27;5650;-64
2023/12/30 09:16:01;;;;;;;;;;;;;;;11.80;60.81;97177.16;4253189;27;6284;-64
2023/12/30 09:18:05;;;;;;;;;;;;;;;11.82;60.66;97186.53;4252220;27;5807;-64
2023/12/30 09:20:09;;;;;;;;;;;;;;;11.83;60.85;97187.34;4253136;27;5705;-64
2023/12/30 09:22:12;;;;;;;;;;;;;;;11.83;60.60;97182.06;4253764;27;5673;-64
2023/12/30 09:24:15;;;;;;;;;;;;;;;11.85;60.64;97201.22;4253012;27;5676;-64
2023/12/30 09:26:18;;;;;;;;;;;;;;;11.86;61.01;97192.25;4263174;27;5579;-63
2023/12/30 09:28:21;;;;;;;;;;;;;;;11.86;60.93;97194.91;4259350;27;5641;-64
2023/12/30 09:30:26;;;;;;;;;;;;;;;11.85;60.81;97199.41;4252915;27;5809;-64
2023/12/30 09:32:28;;;;;;;;;;;;;;;11.84;60.84;97200.41;4253050;27;5784;-64
2023/12/30 09:34:30;;;;;;;;;;;;;;;11.85;60.87;97193.28;4261573;27;6280;-64
2023/12/30 09:36:46;;;;;;;;;;;;;;;11.85;60.49;97201.22;4261690;27;5590;-64
2023/12/30 09:38:50;;;;;;;;;;;;;;;11.83;60.77;97197.94;4254500;27;5586;-70
2023/12/30 09:40:53;;;;;;;;;;;;;;;11.84;60.60;97199.59;4254551;27;5719;-65
2023/12/30 09:43:05;;;;;;;;;;;;;;;11.86;60.77;97194.91;4252045;27;6380;-65
2023/12/30 09:45:10;;;;;;;;;;;;;;;11.88;60.44;97200.84;4255575;27;5650;-65
2023/12/30 09:47:13;;;;;;;;;;;;;;;11.89;60.62;97205.13;4261588;27;5715;-64
2023/12/30 09:49:17;;;;;;;;;;;;;;;11.91;60.47;97206.59;4253737;27;5621;-64
2023/12/30 09:51:20;;;;;;;;;;;;;;;11.93;60.56;97209.03;4252345;27;5847;-64
2023/12/30 09:53:24;;;;;;;;;;;;;;;11.93;60.33;97206.41;4254524;27;5686;-65
2023/12/30 09:55:26;;;;;;;;;;;;;;;11.95;60.27;97205.19;4260950;27;5726;-64
2023/12/30 09:57:29;;;;;;;;;;;;;;;11.99;60.32;97205.59;4256576;27;5582;-65
2023/12/30 09:59:35;;;;;;;;;;;;;;;12.01;60.40;97205.44;4256609;27;5567;-64
2023/12/30 10:01:39;;;;;;;;;;;;;;;12.04;60.17;97195.28;4255443;27;5596;-65
2023/12/30 10:03:44;;;;;;;;;;;;;;;12.05;59.12;97194.25;4252335;27;5593;-65
2023/12/30 10:05:49;;;;;;;;;;;;;;;11.99;58.83;97205.59;4258155;27;5772;-65
2023/12/30 10:07:53;;;;;;;;;;;;;;;11.91;59.24;97193.34;4260560;27;6695;-65
2023/12/30 10:09:56;;;;;;;;;;;;;;;11.94;59.29;97192.13;4262206;27;5629;-65
2023/12/30 10:11:58;;;;;;;;;;;;;;;11.97;59.56;97190.91;4260419;27;5733;-65
2023/12/30 10:14:02;;;;;;;;;;;;;;;11.99;59.57;97192.38;4251920;27;5681;-65
2023/12/30 10:16:08;;;;;;;;;;;;;;;12.01;59.08;97185.06;4252692;27;5653;-65
2023/12/30 10:18:13;;;;;;;;;;;;;;;12.01;58.97;97179.78;4252260;27;5646;-65
2023/12/30 10:20:23;;;;;;;;;;;;;;;12.00;59.16;97183.41;4251945;27;5594;-65
2023/12/30 10:22:26;;;;;;;;;;;;;;;12.01;59.22;97176.31;4263686;27;5763;-65
2023/12/30 10:24:29;;;;;;;;;;;;;;;12.01;58.94;97174.47;4256934;27;5674;-65
2023/12/30 10:26:32;;;;;;;;;;;;;;;11.97;58.59;97167.91;4251653;27;5795;-64
2023/12/30 10:28:36;;;;;;;;;;;;;;;11.98;58.15;97168.72;4256099;27;5571;-64
2023/12/30 10:30:39;;;;;;;;;;;;;;;11.94;58.04;97160.34;4258245;27;5598;-65
2023/12/30 10:32:41;;;;;;;;;;;;;;;11.89;57.93;97155.63;4253579;27;5925;-65
2023/12/30 10:34:44;;;;;;;;;;;;;;;11.88;57.89;97155.78;4261890;27;5699;-64
2023/12/30 10:36:49;;;;;;;;;;;;;;;11.85;57.84;97157.00;4252091;27;5637;-65
2023/12/30 10:38:54;;;;;;;;;;;;;;;11.83;58.16;97155.56;4251800;27;5661;-64
2023/12/30 10:40:57;;;;;;;;;;;;;;;11.84;58.11;97151.91;4251672;27;5618;-64
2023/12/30 10:43:02;;;;;;;;;;;;;;;11.86;58.24;97149.88;4260342;27;6283;-64
2023/12/30 10:45:06;;;;;;;;;;;;;;;11.91;58.69;97153.59;4260705;27;5700;-64
2023/12/30 10:47:14;;;;;;;;;;;;;;;11.96;58.51;97142.41;4252083;27;5708;-65
2023/12/30 10:49:17;;;;;;;;;;;;;;;11.97;58.17;97133.44;4251455;27;5602;-65
2023/12/30 10:51:25;;;;;;;;;;;;;;;11.99;58.51;97139.38;4258805;27;5606;-65
2023/12/30 10:53:35;;;;;;;;;;;;;;;12.01;58.31;97132.06;4253989;27;5625;-65